Decoded Metar for KPHF (NEWPORT NEWS in VA, USA) (IATA:PHF) | Meteo·Mobile Aviation Weather
aviador You're here:

KPHF Decoded Metar

NEWPORT NEWS in VA, USA
Report Time2019-06-26 17:54:00
UTC Time2019-06-26 18:57:18
Flight Rules vfr VFR
Wind030° at 06 kt
W.Decomp.*RWY 02: 5.7 kt HW 2.0 kt RCW
RWY 07: 5.1 kt HW 3.1 kt LCW
Visibility9999 m
Phenomena:N/A
Clouds:Few 070 Hf
Expected CloudBase > 5,600 ft AGL from Temp-Dew spread
CeilingNone
Temp31°C (ISA +16)
Dew Point17°C (43% RH)
Heat Index31.4°C
QNH1019 hPa
Density Alt1,936 ft
Elevation39 ft
Report Wrong Elevation
Raw Report
METAR KPHF 261754Z 03006KT 10SM FEW070 31/17 A3008 RMK AO2 SLP185 T03110172
10311 20250 58005=

Extra information for KPHF:More info

Metar Taf Metar & Taf Last 4 Metars F.Rules Stats Wind Profile Meteogram Temp Stats Airport Information Weather charts Add Link Nearby VenuesMetar ALERT Operation Metar Decoded Social comments

AIRNAV info for KPHF